sensor_id;sensor_type;location;lat;lon;timestamp;pressure;altitude;pressure_sealevel;temperature;humidity
81865;BME280;71313;43.514;1.500;2023-07-22T00:02:12;99948.38;;;26.20;46.45
81865;BME280;71313;43.514;1.500;2023-07-22T00:04:38;99939.47;;;26.18;45.89
81865;BME280;71313;43.514;1.500;2023-07-22T00:07:04;99949.63;;;26.18;46.07
81865;BME280;71313;43.514;1.500;2023-07-22T00:09:32;99947.06;;;26.16;45.93
81865;BME280;71313;43.514;1.500;2023-07-22T00:11:59;99937.78;;;26.17;46.87
81865;BME280;71313;43.514;1.500;2023-07-22T00:14:24;99940.72;;;26.16;46.43
81865;BME280;71313;43.514;1.500;2023-07-22T00:16:50;99935.44;;;26.14;45.92
81865;BME280;71313;43.514;1.500;2023-07-22T00:19:15;99926.31;;;26.07;46.61
81865;BME280;71313;43.514;1.500;2023-07-22T00:21:41;99942.41;;;26.10;46.82
81865;BME280;71313;43.514;1.500;2023-07-22T00:24:06;99954.25;;;26.11;46.39
81865;BME280;71313;43.514;1.500;2023-07-22T00:26:32;99951.69;;;26.09;46.62
81865;BME280;71313;43.514;1.500;2023-07-22T00:28:57;99962.69;;;26.09;46.55
81865;BME280;71313;43.514;1.500;2023-07-22T00:31:23;99972.66;;;26.10;46.71
81865;BME280;71313;43.514;1.500;2023-07-22T00:33:48;99966.50;;;26.08;46.60
81865;BME280;71313;43.514;1.500;2023-07-22T00:36:14;99958.47;;;26.07;46.45
81865;BME280;71313;43.514;1.500;2023-07-22T00:38:39;99949.34;;;26.06;47.22
81865;BME280;71313;43.514;1.500;2023-07-22T00:41:05;99940.25;;;26.06;46.64
81865;BME280;71313;43.514;1.500;2023-07-22T00:43:32;99911.06;;;26.05;46.64
81865;BME280;71313;43.514;1.500;2023-07-22T00:45:58;99911.25;;;26.03;46.42
81865;BME280;71313;43.514;1.500;2023-07-22T00:48:24;99905.13;;;26.01;46.52
81865;BME280;71313;43.514;1.500;2023-07-22T00:50:50;99907.88;;;26.01;46.54
81865;BME280;71313;43.514;1.500;2023-07-22T00:53:16;99900.06;;;25.98;47.29
81865;BME280;71313;43.514;1.500;2023-07-22T00:55:44;99886.97;;;26.00;47.20
81865;BME280;71313;43.514;1.500;2023-07-22T00:58:10;99868.13;;;25.97;47.50
81865;BME280;71313;43.514;1.500;2023-07-22T01:00:36;99856.47;;;25.95;47.28
81865;BME280;71313;43.514;1.500;2023-07-22T01:03:02;99851.84;;;25.96;46.83
81865;BME280;71313;43.514;1.500;2023-07-22T01:05:30;99830.69;;;25.96;47.26
81865;BME280;71313;43.514;1.500;2023-07-22T01:07:56;99840.84;;;25.96;46.97
81865;BME280;71313;43.514;1.500;2023-07-22T01:10:22;99833.84;;;25.93;47.43
81865;BME280;71313;43.514;1.500;2023-07-22T01:12:48;99838.28;;;25.94;46.99
81865;BME280;71313;43.514;1.500;2023-07-22T01:15:14;99847.78;;;25.92;47.77
81865;BME280;71313;43.514;1.500;2023-07-22T01:17:39;99870.44;;;25.94;47.59
81865;BME280;71313;43.514;1.500;2023-07-22T01:20:06;99861.75;;;25.90;47.14
81865;BME280;71313;43.514;1.500;2023-07-22T01:22:33;99842.50;;;25.90;47.70
81865;BME280;71313;43.514;1.500;2023-07-22T01:25:00;99833.19;;;25.91;47.60
81865;BME280;71313;43.514;1.500;2023-07-22T01:27:26;99855.19;;;25.91;47.66
81865;BME280;71313;43.514;1.500;2023-07-22T01:29:51;99871.69;;;25.91;48.15
81865;BME280;71313;43.514;1.500;2023-07-22T01:32:17;99888.59;;;25.88;47.34
81865;BME280;71313;43.514;1.500;2023-07-22T01:34:43;99907.19;;;25.86;47.38
81865;BME280;71313;43.514;1.500;2023-07-22T01:37:08;99920.94;;;25.86;47.59
81865;BME280;71313;43.514;1.500;2023-07-22T01:39:35;99918.41;;;25.84;47.80
81865;BME280;71313;43.514;1.500;2023-07-22T01:42:00;99907.59;;;25.83;47.49
81865;BME280;71313;43.514;1.500;2023-07-22T01:44:26;99894.91;;;25.82;47.33
81865;BME280;71313;43.514;1.500;2023-07-22T01:46:51;99896.59;;;25.83;47.50
81865;BME280;71313;43.514;1.500;2023-07-22T01:49:17;99898.72;;;25.81;47.54
81865;BME280;71313;43.514;1.500;2023-07-22T01:51:42;99906.31;;;25.79;48.00
81865;BME280;71313;43.514;1.500;2023-07-22T01:54:08;99869.94;;;25.77;47.91
81865;BME280;71313;43.514;1.500;2023-07-22T01:56:35;99836.94;;;25.77;47.40
81865;BME280;71313;43.514;1.500;2023-07-22T01:59:01;99831.44;;;25.77;48.61
81865;BME280;71313;43.514;1.500;2023-07-22T02:01:27;99837.38;;;25.74;47.94
81865;BME280;71313;43.514;1.500;2023-07-22T02:03:53;99850.06;;;25.75;48.57
81865;BME280;71313;43.514;1.500;2023-07-22T02:06:19;99840.31;;;25.72;48.13
81865;BME280;71313;43.514;1.500;2023-07-22T02:08:44;99857.66;;;25.73;47.91
81865;BME280;71313;43.514;1.500;2023-07-22T02:11:11;99854.91;;;25.73;47.54
81865;BME280;71313;43.514;1.500;2023-07-22T02:13:37;99858.72;;;25.72;47.92
81865;BME280;71313;43.514;1.500;2023-07-22T02:16:03;99854.25;;;25.71;48.41
81865;BME280;71313;43.514;1.500;2023-07-22T02:18:29;99840.94;;;25.68;48.05
81865;BME280;71313;43.514;1.500;2023-07-22T02:20:55;99844.31;;;25.70;48.56
81865;BME280;71313;43.514;1.500;2023-07-22T02:23:22;99831.34;;;25.64;48.68
81865;BME280;71313;43.514;1.500;2023-07-22T02:25:49;99848.13;;;25.69;48.63
81865;BME280;71313;43.514;1.500;2023-07-22T02:28:15;99854.03;;;25.66;48.86
81865;BME280;71313;43.514;1.500;2023-07-22T02:30:41;99859.53;;;25.66;48.04
81865;BME280;71313;43.514;1.500;2023-07-22T02:33:07;99865.19;;;25.64;48.24
81865;BME280;71313;43.514;1.500;2023-07-22T02:35:33;99871.94;;;25.62;48.53
81865;BME280;71313;43.514;1.500;2023-07-22T02:37:59;99865.16;;;25.58;48.70
81865;BME280;71313;43.514;1.500;2023-07-22T02:40:24;99875.28;;;25.57;48.26
81865;BME280;71313;43.514;1.500;2023-07-22T02:42:50;99888.84;;;25.59;48.40
81865;BME280;71313;43.514;1.500;2023-07-22T02:45:16;99899.19;;;25.56;48.53
81865;BME280;71313;43.514;1.500;2023-07-22T02:47:41;99885.44;;;25.56;48.70
81865;BME280;71313;43.514;1.500;2023-07-22T02:50:08;99886.25;;;25.50;48.67
81865;BME280;71313;43.514;1.500;2023-07-22T02:52:34;99892.19;;;25.54;47.70
81865;BME280;71313;43.514;1.500;2023-07-22T02:55:14;99893.44;;;25.51;48.71
81865;BME280;71313;43.514;1.500;2023-07-22T02:57:41;99897.22;;;25.50;48.12
81865;BME280;71313;43.514;1.500;2023-07-22T03:00:08;99897.63;;;25.47;48.79
81865;BME280;71313;43.514;1.500;2023-07-22T03:02:37;99903.97;;;25.48;48.11
81865;BME280;71313;43.514;1.500;2023-07-22T03:05:09;99901.44;;;25.46;47.80
81865;BME280;71313;43.514;1.500;2023-07-22T03:07:35;99910.22;;;25.35;48.80
81865;BME280;71313;43.514;1.500;2023-07-22T03:10:01;99908.78;;;25.39;48.57
81865;BME280;71313;43.514;1.500;2023-07-22T03:12:27;99910.69;;;25.39;47.98
81865;BME280;71313;43.514;1.500;2023-07-22T03:14:53;99908.97;;;25.38;48.75
81865;BME280;71313;43.514;1.500;2023-07-22T03:17:18;99917.44;;;25.36;48.03
81865;BME280;71313;43.514;1.500;2023-07-22T03:19:44;99913.19;;;25.34;48.45
81865;BME280;71313;43.514;1.500;2023-07-22T03:22:13;99920.78;;;25.32;48.53
81865;BME280;71313;43.514;1.500;2023-07-22T03:24:39;99917.56;;;25.28;48.53
81865;BME280;71313;43.514;1.500;2023-07-22T03:27:05;99922.22;;;25.28;48.24
81865;BME280;71313;43.514;1.500;2023-07-22T03:29:32;99935.09;;;25.27;48.49
81865;BME280;71313;43.514;1.500;2023-07-22T03:31:57;99937.19;;;25.25;48.27
81865;BME280;71313;43.514;1.500;2023-07-22T03:34:28;99934.84;;;25.22;48.71
81865;BME280;71313;43.514;1.500;2023-07-22T03:36:53;99943.50;;;25.19;48.91
81865;BME280;71313;43.514;1.500;2023-07-22T03:39:19;99940.09;;;25.17;48.36
81865;BME280;71313;43.514;1.500;2023-07-22T03:41:45;99948.34;;;25.17;48.19
81865;BME280;71313;43.514;1.500;2023-07-22T03:44:10;99949.97;;;25.11;48.38
81865;BME280;71313;43.514;1.500;2023-07-22T03:46:37;99951.03;;;25.10;48.36
81865;BME280;71313;43.514;1.500;2023-07-22T03:49:02;99955.66;;;25.10;48.34
81865;BME280;71313;43.514;1.500;2023-07-22T03:51:28;99956.06;;;25.07;48.79
81865;BME280;71313;43.514;1.500;2023-07-22T03:53:53;99959.84;;;25.06;48.42
81865;BME280;71313;43.514;1.500;2023-07-22T03:56:20;99969.13;;;25.05;48.63
81865;BME280;71313;43.514;1.500;2023-07-22T03:58:46;99965.72;;;25.03;47.98
81865;BME280;71313;43.514;1.500;2023-07-22T04:01:12;99964.03;;;25.02;48.76
81865;BME280;71313;43.514;1.500;2023-07-22T04:03:38;99962.34;;;25.01;48.26
81865;BME280;71313;43.514;1.500;2023-07-22T04:06:03;99973.31;;;25.01;48.21
81865;BME280;71313;43.514;1.500;2023-07-22T04:08:29;99961.03;;;24.97;48.95
81865;BME280;71313;43.514;1.500;2023-07-22T04:10:55;99963.56;;;24.98;49.50
81865;BME280;71313;43.514;1.500;2023-07-22T04:13:22;99971.13;;;24.96;48.87
81865;BME280;71313;43.514;1.500;2023-07-22T04:15:48;99974.06;;;24.95;49.39
81865;BME280;71313;43.514;1.500;2023-07-22T04:18:18;99969.63;;;24.93;48.39
81865;BME280;71313;43.514;1.500;2023-07-22T04:20:44;99970.00;;;24.90;49.63
81865;BME280;71313;43.514;1.500;2023-07-22T04:23:10;99978.63;;;24.87;48.85
81865;BME280;71313;43.514;1.500;2023-07-22T04:25:43;99985.84;;;24.88;49.13
81865;BME280;71313;43.514;1.500;2023-07-22T04:28:09;99990.00;;;24.84;49.21
81865;BME280;71313;43.514;1.500;2023-07-22T04:30:35;99981.13;;;24.82;49.84
81865;BME280;71313;43.514;1.500;2023-07-22T04:33:02;99977.06;;;24.78;49.70
81865;BME280;71313;43.514;1.500;2023-07-22T04:35:38;99991.25;;;24.82;48.88
81865;BME280;71313;43.514;1.500;2023-07-22T04:38:04;99995.22;;;24.79;49.85
81865;BME280;71313;43.514;1.500;2023-07-22T04:40:30;99994.59;;;24.77;49.54
81865;BME280;71313;43.514;1.500;2023-07-22T04:42:56;99993.72;;;24.77;49.53
81865;BME280;71313;43.514;1.500;2023-07-22T04:45:22;100000.47;;;24.74;49.11
81865;BME280;71313;43.514;1.500;2023-07-22T04:47:52;100000.47;;;24.74;49.67
81865;BME280;71313;43.514;1.500;2023-07-22T04:50:17;99991.56;;;24.72;49.93
81865;BME280;71313;43.514;1.500;2023-07-22T04:52:46;99991.31;;;24.67;49.36
81865;BME280;71313;43.514;1.500;2023-07-22T04:55:12;99995.75;;;24.68;49.88
81865;BME280;71313;43.514;1.500;2023-07-22T04:57:38;99997.84;;;24.66;49.04
81865;BME280;71313;43.514;1.500;2023-07-22T05:00:09;99989.78;;;24.65;49.97
81865;BME280;71313;43.514;1.500;2023-07-22T05:02:37;99991.88;;;24.63;50.20
81865;BME280;71313;43.514;1.500;2023-07-22T05:05:04;99994.81;;;24.61;49.69
81865;BME280;71313;43.514;1.500;2023-07-22T05:07:29;99996.91;;;24.59;49.37
81865;BME280;71313;43.514;1.500;2023-07-22T05:09:55;99996.91;;;24.59;49.20
81865;BME280;71313;43.514;1.500;2023-07-22T05:12:20;100004.28;;;24.58;50.13
81865;BME280;71313;43.514;1.500;2023-07-22T05:14:46;100003.63;;;24.56;49.18
81865;BME280;71313;43.514;1.500;2023-07-22T05:17:11;99999.00;;;24.57;49.19
81865;BME280;71313;43.514;1.500;2023-07-22T05:19:37;99997.69;;;24.53;50.35
81865;BME280;71313;43.514;1.500;2023-07-22T05:22:02;99997.69;;;24.53;49.50
81865;BME280;71313;43.514;1.500;2023-07-22T05:24:28;100002.31;;;24.52;50.34
81865;BME280;71313;43.514;1.500;2023-07-22T05:26:54;100003.16;;;24.53;50.29
81865;BME280;71313;43.514;1.500;2023-07-22T05:29:20;100002.50;;;24.51;49.79
81865;BME280;71313;43.514;1.500;2023-07-22T05:31:45;100005.25;;;24.51;49.79
81865;BME280;71313;43.514;1.500;2023-07-22T05:34:12;100002.50;;;24.51;49.58
81865;BME280;71313;43.514;1.500;2023-07-22T05:36:37;99996.38;;;24.49;49.22
81865;BME280;71313;43.514;1.500;2023-07-22T05:39:03;99984.94;;;24.45;50.30
81865;BME280;71313;43.514;1.500;2023-07-22T05:41:29;99998.25;;;24.48;50.05
81865;BME280;71313;43.514;1.500;2023-07-22T05:43:54;99993.81;;;24.47;50.12
81865;BME280;71313;43.514;1.500;2023-07-22T05:46:20;99994.66;;;24.48;50.12
81865;BME280;71313;43.514;1.500;2023-07-22T05:48:45;99991.91;;;24.48;49.50
81865;BME280;71313;43.514;1.500;2023-07-22T05:51:11;99993.81;;;24.47;49.83
81865;BME280;71313;43.514;1.500;2023-07-22T05:53:36;99997.59;;;24.46;50.72
81865;BME280;71313;43.514;1.500;2023-07-22T05:56:02;99997.13;;;24.43;50.30
81865;BME280;71313;43.514;1.500;2023-07-22T05:58:27;99999.69;;;24.44;49.61
81865;BME280;71313;43.514;1.500;2023-07-22T06:00:54;99997.97;;;24.43;50.58
81865;BME280;71313;43.514;1.500;2023-07-22T06:03:19;99994.78;;;24.40;49.75
81865;BME280;71313;43.514;1.500;2023-07-22T06:05:46;100000.91;;;24.42;50.30
81865;BME280;71313;43.514;1.500;2023-07-22T06:08:12;100006.41;;;24.42;49.83
81865;BME280;71313;43.514;1.500;2023-07-22T06:10:37;100004.50;;;24.42;49.99
81865;BME280;71313;43.514;1.500;2023-07-22T06:13:04;100002.63;;;24.43;49.99
81865;BME280;71313;43.514;1.500;2023-07-22T06:15:29;100004.69;;;24.41;50.25
81865;BME280;71313;43.514;1.500;2023-07-22T06:17:55;100010.19;;;24.41;50.30
81865;BME280;71313;43.514;1.500;2023-07-22T06:20:21;100009.34;;;24.40;50.25
81865;BME280;71313;43.514;1.500;2023-07-22T06:22:46;100005.94;;;24.38;50.25
81865;BME280;71313;43.514;1.500;2023-07-22T06:25:12;100005.75;;;24.40;49.93
81865;BME280;71313;43.514;1.500;2023-07-22T06:27:37;100008.47;;;24.40;50.33
81865;BME280;71313;43.514;1.500;2023-07-22T06:30:03;100009.34;;;24.40;49.37
81865;BME280;71313;43.514;1.500;2023-07-22T06:32:29;100013.78;;;24.41;50.11
81865;BME280;71313;43.514;1.500;2023-07-22T06:34:56;100017.38;;;24.42;49.88
81865;BME280;71313;43.514;1.500;2023-07-22T06:37:23;100011.88;;;24.42;50.06
81865;BME280;71313;43.514;1.500;2023-07-22T06:39:49;100013.31;;;24.38;49.61
81865;BME280;71313;43.514;1.500;2023-07-22T06:42:14;100009.53;;;24.39;49.24
81865;BME280;71313;43.514;1.500;2023-07-22T06:44:40;100016.72;;;24.40;49.59
81865;BME280;71313;43.514;1.500;2023-07-22T06:47:06;100026.66;;;24.41;50.05
81865;BME280;71313;43.514;1.500;2023-07-22T06:49:32;100025.97;;;24.39;49.45
81865;BME280;71313;43.514;1.500;2023-07-22T06:51:57;100026.66;;;24.41;49.06
81865;BME280;71313;43.514;1.500;2023-07-22T06:54:23;100021.34;;;24.39;48.73
81865;BME280;71313;43.514;1.500;2023-07-22T06:56:48;100026.66;;;24.41;49.35
81865;BME280;71313;43.514;1.500;2023-07-22T06:59:14;100024.94;;;24.40;49.44
81865;BME280;71313;43.514;1.500;2023-07-22T07:01:43;100034.88;;;24.41;49.18
81865;BME280;71313;43.514;1.500;2023-07-22T07:04:08;100033.84;;;24.42;49.19
81865;BME280;71313;43.514;1.500;2023-07-22T07:06:34;100029.78;;;24.38;49.36
81865;BME280;71313;43.514;1.500;2023-07-22T07:09:00;100037.63;;;24.41;48.98
81865;BME280;71313;43.514;1.500;2023-07-22T07:11:28;100032.13;;;24.41;48.61
81865;BME280;71313;43.514;1.500;2023-07-22T07:13:55;100034.88;;;24.41;49.35
81865;BME280;71313;43.514;1.500;2023-07-22T07:18:50;100032.13;;;24.41;48.61
81865;BME280;71313;43.514;1.500;2023-07-22T07:21:17;100032.13;;;24.41;49.29
81865;BME280;71313;43.514;1.500;2023-07-22T07:23:42;100035.72;;;24.41;49.44
81865;BME280;71313;43.514;1.500;2023-07-22T07:26:08;100032.13;;;24.41;48.77
81865;BME280;71313;43.514;1.500;2023-07-22T07:28:33;100034.69;;;24.42;48.56
81865;BME280;71313;43.514;1.500;2023-07-22T07:30:59;100038.94;;;24.45;49.09
81865;BME280;71313;43.514;1.500;2023-07-22T07:33:25;100036.84;;;24.47;48.29
81865;BME280;71313;43.514;1.500;2023-07-22T07:35:51;100044.69;;;24.50;48.42
81865;BME280;71313;43.514;1.500;2023-07-22T07:38:16;100034.78;;;24.49;48.05
81865;BME280;71313;43.514;1.500;2023-07-22T07:40:42;100035.03;;;24.54;49.20
81865;BME280;71313;43.514;1.500;2023-07-22T07:43:08;100026.63;;;24.55;47.95
81865;BME280;71313;43.514;1.500;2023-07-22T07:45:37;100033.63;;;24.58;47.81
81865;BME280;71313;43.514;1.500;2023-07-22T07:48:04;100027.75;;;24.61;48.59
81865;BME280;71313;43.514;1.500;2023-07-22T07:50:30;100030.28;;;24.63;48.76
81865;BME280;71313;43.514;1.500;2023-07-22T07:52:55;100021.03;;;24.64;47.97
81865;BME280;71313;43.514;1.500;2023-07-22T07:55:20;100019.78;;;24.66;47.64
81865;BME280;71313;43.514;1.500;2023-07-22T07:57:46;100018.34;;;24.70;48.60
81865;BME280;71313;43.514;1.500;2023-07-22T08:00:12;100021.75;;;24.72;48.66
81865;BME280;71313;43.514;1.500;2023-07-22T08:02:37;100019.66;;;24.74;48.34
81865;BME280;71313;43.514;1.500;2023-07-22T08:05:03;100020.31;;;24.76;47.26
81865;BME280;71313;43.514;1.500;2023-07-22T08:07:29;100022.03;;;24.77;47.54
81865;BME280;71313;43.514;1.500;2023-07-22T08:09:55;100016.16;;;24.80;48.19
81865;BME280;71313;43.514;1.500;2023-07-22T08:12:22;100024.84;;;24.84;47.91
81865;BME280;71313;43.514;1.500;2023-07-22T08:14:48;100020.84;;;24.86;48.02
81865;BME280;71313;43.514;1.500;2023-07-22T08:17:14;100025.97;;;24.89;47.30
81865;BME280;71313;43.514;1.500;2023-07-22T08:19:39;100028.50;;;24.91;48.24
81865;BME280;71313;43.514;1.500;2023-07-22T08:22:05;100030.03;;;24.93;47.82
81865;BME280;71313;43.514;1.500;2023-07-22T08:24:31;100028.97;;;24.95;47.79
81865;BME280;71313;43.514;1.500;2023-07-22T08:26:57;100031.34;;;24.98;47.08
81865;BME280;71313;43.514;1.500;2023-07-22T08:29:24;100035.63;;;25.00;47.42
81865;BME280;71313;43.514;1.500;2023-07-22T08:31:49;100037.31;;;25.01;47.24
81865;BME280;71313;43.514;1.500;2023-07-22T08:34:15;100035.81;;;24.99;47.12
81865;BME280;71313;43.514;1.500;2023-07-22T08:36:41;100040.53;;;25.05;47.39
81865;BME280;71313;43.514;1.500;2023-07-22T08:39:07;100032.94;;;25.07;46.86
81865;BME280;71313;43.514;1.500;2023-07-22T08:41:33;100022.81;;;25.07;46.99
81865;BME280;71313;43.514;1.500;2023-07-22T08:44:00;100031.50;;;25.11;46.65
81865;BME280;71313;43.514;1.500;2023-07-22T08:46:28;100029.41;;;25.13;47.51
81865;BME280;71313;43.514;1.500;2023-07-22T08:48:59;100026.47;;;25.14;47.59
81865;BME280;71313;43.514;1.500;2023-07-22T08:51:26;100039.81;;;25.17;47.48
81865;BME280;71313;43.514;1.500;2023-07-22T08:53:58;100031.38;;;25.19;46.64
81865;BME280;71313;43.514;1.500;2023-07-22T08:56:24;100030.13;;;25.21;46.78
81865;BME280;71313;43.514;1.500;2023-07-22T08:58:53;100022.53;;;25.23;47.23
81865;BME280;71313;43.514;1.500;2023-07-22T09:01:20;100029.72;;;25.24;46.35
81865;BME280;71313;43.514;1.500;2023-07-22T09:03:47;100028.50;;;25.27;47.16
81865;BME280;71313;43.514;1.500;2023-07-22T09:06:12;100027.44;;;25.28;47.05
81865;BME280;71313;43.514;1.500;2023-07-22T09:08:38;100021.09;;;25.28;47.44
81865;BME280;71313;43.514;1.500;2023-07-22T09:11:04;100031.50;;;25.32;46.93
81865;BME280;71313;43.514;1.500;2023-07-22T09:13:30;100020.13;;;25.35;46.35
81865;BME280;71313;43.514;1.500;2023-07-22T09:15:57;100034.50;;;25.37;47.15
81865;BME280;71313;43.514;1.500;2023-07-22T09:18:24;100036.19;;;25.38;46.76
81865;BME280;71313;43.514;1.500;2023-07-22T09:20:50;100034.09;;;25.40;47.14
81865;BME280;71313;43.514;1.500;2023-07-22T09:23:16;100032.00;;;25.42;46.13
81865;BME280;71313;43.514;1.500;2023-07-22T09:25:42;100029.91;;;25.44;46.09
81865;BME280;71313;43.514;1.500;2023-07-22T09:28:07;100035.41;;;25.44;46.85
81865;BME280;71313;43.514;1.500;2023-07-22T09:30:36;100036.72;;;25.48;46.93
81865;BME280;71313;43.514;1.500;2023-07-22T09:33:04;100038.41;;;25.49;46.11
81865;BME280;71313;43.514;1.500;2023-07-22T09:38:08;100034.22;;;25.53;45.66
81865;BME280;71313;43.514;1.500;2023-07-22T09:40:33;100030.63;;;25.53;45.95
81865;BME280;71313;43.514;1.500;2023-07-22T09:43:01;100036.56;;;25.56;46.70
81865;BME280;71313;43.514;1.500;2023-07-22T09:45:29;100028.13;;;25.58;45.74
81865;BME280;71313;43.514;1.500;2023-07-22T09:47:55;100025.38;;;25.58;46.40
81865;BME280;71313;43.514;1.500;2023-07-22T09:50:23;100028.59;;;25.62;45.67
81865;BME280;71313;43.514;1.500;2023-07-22T09:52:51;100025.84;;;25.62;45.93
81865;BME280;71313;43.514;1.500;2023-07-22T09:55:19;100030.97;;;25.65;45.71
81865;BME280;71313;43.514;1.500;2023-07-22T09:57:46;100023.75;;;25.64;46.09
81865;BME280;71313;43.514;1.500;2023-07-22T10:00:14;100031.63;;;25.67;46.09
81865;BME280;71313;43.514;1.500;2023-07-22T10:02:42;100031.22;;;25.70;46.65
81865;BME280;71313;43.514;1.500;2023-07-22T10:05:13;100031.88;;;25.72;46.41
81865;BME280;71313;43.514;1.500;2023-07-22T10:07:44;100030.75;;;25.66;45.80
81865;BME280;71313;43.514;1.500;2023-07-22T10:10:12;100018.97;;;25.72;46.30
81865;BME280;71313;43.514;1.500;2023-07-22T10:12:40;100022.16;;;25.76;45.90
81865;BME280;71313;43.514;1.500;2023-07-22T10:15:07;100014.13;;;25.74;46.02
81865;BME280;71313;43.514;1.500;2023-07-22T10:17:33;100021.78;;;25.79;46.18
81865;BME280;71313;43.514;1.500;2023-07-22T10:19:59;100025.16;;;25.81;46.28
81865;BME280;71313;43.514;1.500;2023-07-22T10:22:26;100018.41;;;25.83;46.41
81865;BME280;71313;43.514;1.500;2023-07-22T10:24:53;100021.81;;;25.85;46.17
81865;BME280;71313;43.514;1.500;2023-07-22T10:27:21;100011.66;;;25.86;45.74
81865;BME280;71313;43.514;1.500;2023-07-22T10:29:47;100021.41;;;25.88;46.30
81865;BME280;71313;43.514;1.500;2023-07-22T10:32:12;100016.56;;;25.91;46.01
81865;BME280;71313;43.514;1.500;2023-07-22T10:34:38;100019.13;;;25.92;45.93
81865;BME280;71313;43.514;1.500;2023-07-22T10:37:03;100019.31;;;25.91;45.72
81865;BME280;71313;43.514;1.500;2023-07-22T10:39:29;100013.22;;;25.95;45.83
81865;BME280;71313;43.514;1.500;2023-07-22T10:42:05;100011.75;;;25.99;45.72
81865;BME280;71313;43.514;1.500;2023-07-22T10:44:40;100006.03;;;26.01;45.45
81865;BME280;71313;43.514;1.500;2023-07-22T10:47:05;100010.69;;;26.00;46.04
81865;BME280;71313;43.514;1.500;2023-07-22T10:49:48;100013.00;;;26.03;44.86
81865;BME280;71313;43.514;1.500;2023-07-22T10:52:14;100008.16;;;26.05;45.88
81865;BME280;71313;43.514;1.500;2023-07-22T10:54:40;100003.72;;;26.04;45.57
81865;BME280;71313;43.514;1.500;2023-07-22T10:59:49;100008.41;;;26.10;45.53
81865;BME280;71313;43.514;1.500;2023-07-22T11:02:28;99997.19;;;26.12;45.43
81865;BME280;71313;43.514;1.500;2023-07-22T11:04:58;99994.88;;;26.15;44.70
81865;BME280;71313;43.514;1.500;2023-07-22T11:07:32;99994.88;;;26.15;44.98
81865;BME280;71313;43.514;1.500;2023-07-22T11:10:11;99998.28;;;26.17;45.08
81865;BME280;71313;43.514;1.500;2023-07-22T11:12:38;99993.44;;;26.19;44.63
81865;BME280;71313;43.514;1.500;2023-07-22T11:15:04;99994.06;;;26.21;45.54
81865;BME280;71313;43.514;1.500;2023-07-22T11:17:32;99995.78;;;26.23;44.69
81865;BME280;71313;43.514;1.500;2023-07-22T11:19:59;99985.41;;;26.25;45.35
81865;BME280;71313;43.514;1.500;2023-07-22T11:22:25;99984.34;;;26.26;44.63
81865;BME280;71313;43.514;1.500;2023-07-22T11:24:52;99981.19;;;26.29;44.71
81865;BME280;71313;43.514;1.500;2023-07-22T11:27:18;99978.41;;;26.22;44.49
81865;BME280;71313;43.514;1.500;2023-07-22T11:29:44;99996.28;;;26.33;44.61
81865;BME280;71313;43.514;1.500;2023-07-22T11:32:17;99989.72;;;26.34;45.30
81865;BME280;71313;43.514;1.500;2023-07-22T11:34:43;99985.28;;;26.33;45.22
81865;BME280;71313;43.514;1.500;2023-07-22T11:37:11;99995.88;;;26.36;45.34
81865;BME280;71313;43.514;1.500;2023-07-22T11:39:38;99983.59;;;26.38;44.48
81865;BME280;71313;43.514;1.500;2023-07-22T11:42:04;99981.50;;;26.40;44.04
81865;BME280;71313;43.514;1.500;2023-07-22T11:44:31;99978.53;;;26.42;44.51
81865;BME280;71313;43.514;1.500;2023-07-22T11:47:02;99970.94;;;26.44;44.45
81865;BME280;71313;43.514;1.500;2023-07-22T11:49:37;99974.31;;;26.46;44.27
81865;BME280;71313;43.514;1.500;2023-07-22T11:52:06;99972.22;;;26.48;45.01
81865;BME280;71313;43.514;1.500;2023-07-22T11:54:34;99968.41;;;26.49;44.76
81865;BME280;71313;43.514;1.500;2023-07-22T11:59:49;99966.94;;;26.53;44.46
81865;BME280;71313;43.514;1.500;2023-07-22T12:02:16;99974.13;;;26.54;44.81
81865;BME280;71313;43.514;1.500;2023-07-22T12:04:43;99973.94;;;26.56;44.71
81865;BME280;71313;43.514;1.500;2023-07-22T12:07:24;99970.97;;;26.57;43.76
81865;BME280;71313;43.514;1.500;2023-07-22T12:09:51;99969.72;;;26.60;44.45
81865;BME280;71313;43.514;1.500;2023-07-22T12:12:17;99959.53;;;26.60;44.36
81865;BME280;71313;43.514;1.500;2023-07-22T12:14:43;99964.63;;;26.63;44.39
81865;BME280;71313;43.514;1.500;2023-07-22T12:17:09;99959.13;;;26.63;44.19
81865;BME280;71313;43.514;1.500;2023-07-22T12:19:35;99964.22;;;26.66;44.20
81865;BME280;71313;43.514;1.500;2023-07-22T12:22:00;99960.41;;;26.67;44.13
81865;BME280;71313;43.514;1.500;2023-07-22T12:24:27;99963.81;;;26.69;43.65
81865;BME280;71313;43.514;1.500;2023-07-22T12:26:53;99962.75;;;26.70;43.75
81865;BME280;71313;43.514;1.500;2023-07-22T12:29:19;99954.50;;;26.70;43.78
81865;BME280;71313;43.514;1.500;2023-07-22T12:31:44;99946.88;;;26.72;43.99
81865;BME280;71313;43.514;1.500;2023-07-22T12:34:10;99946.88;;;26.72;43.32
81865;BME280;71313;43.514;1.500;2023-07-22T12:36:36;99946.47;;;26.75;43.09
81865;BME280;71313;43.514;1.500;2023-07-22T12:39:01;99950.91;;;26.76;43.57
81865;BME280;71313;43.514;1.500;2023-07-22T12:41:27;99944.34;;;26.77;43.72
81865;BME280;71313;43.514;1.500;2023-07-22T12:43:52;99936.72;;;26.79;43.21
81865;BME280;71313;43.514;1.500;2023-07-22T12:46:18;99933.13;;;26.79;43.24
81865;BME280;71313;43.514;1.500;2023-07-22T12:48:43;99942.88;;;26.81;42.97
81865;BME280;71313;43.514;1.500;2023-07-22T12:51:09;99938.00;;;26.83;43.08
81865;BME280;71313;43.514;1.500;2023-07-22T12:53:35;99941.41;;;26.85;43.29
81865;BME280;71313;43.514;1.500;2023-07-22T12:56:00;99932.06;;;26.87;42.81
81865;BME280;71313;43.514;1.500;2023-07-22T12:58:28;99928.25;;;26.88;42.36
81865;BME280;71313;43.514;1.500;2023-07-22T13:00:54;99924.44;;;26.89;43.13
81865;BME280;71313;43.514;1.500;2023-07-22T13:03:19;99915.13;;;26.90;42.75